createdAt,value
2022-12-29T00:01:20.287Z,100279.84
2022-12-29T00:06:43.537Z,100280.63
2022-12-29T00:12:05.872Z,100288.25
2022-12-29T00:17:27.689Z,100276.25
2022-12-29T00:22:49.507Z,100263.50
2022-12-29T00:28:11.574Z,100268.66
2022-12-29T00:33:34.744Z,100266.94
2022-12-29T00:39:01.724Z,100261.06
2022-12-29T00:44:23.550Z,100261.06
2022-12-29T00:49:45.431Z,100274.56
2022-12-29T00:55:07.636Z,100279.78
2022-12-29T01:00:29.496Z,100267.00
2022-12-29T01:05:51.410Z,100267.06
2022-12-29T01:11:13.907Z,100258.63
2022-12-29T01:16:35.934Z,100232.25
2022-12-29T01:21:57.868Z,100225.53
2022-12-29T01:27:19.709Z,100225.56
2022-12-29T01:32:41.497Z,100226.31
2022-12-29T01:38:03.653Z,100208.47
2022-12-29T01:43:45.575Z,100214.34
2022-12-29T01:49:19.424Z,100208.38
2022-12-29T01:54:51.562Z,100186.25
2022-12-29T02:00:14.441Z,100206.66
2022-12-29T02:05:58.833Z,100202.38
2022-12-29T02:11:20.872Z,100198.13
2022-12-29T02:17:20.188Z,100189.75
2022-12-29T02:22:44.989Z,100186.25
2022-12-29T02:28:35.158Z,100193.16
2022-12-29T02:34:17.555Z,100201.66
2022-12-29T02:39:49.345Z,100199.19
2022-12-29T02:45:16.609Z,100206.91
2022-12-29T02:50:53.913Z,100201.91
2022-12-29T02:56:15.749Z,100210.50
2022-12-29T03:02:02.186Z,100213.94
2022-12-29T03:07:29.024Z,100209.84
2022-12-29T03:12:57.377Z,100216.00
2022-12-29T03:18:26.102Z,100220.28
2022-12-29T03:23:50.389Z,100211.81
2022-12-29T03:29:13.948Z,100200.88
2022-12-29T03:34:38.135Z,100189.13
2022-12-29T03:40:00.084Z,100157.72
2022-12-29T03:45:21.938Z,100146.75
2022-12-29T03:50:43.773Z,100127.25
2022-12-29T03:56:05.813Z,100113.03
2022-12-29T04:01:27.707Z,100165.03
2022-12-29T04:06:49.592Z,100144.53
2022-12-29T04:12:11.483Z,100144.53
2022-12-29T04:17:33.370Z,100136.00
2022-12-29T04:23:05.562Z,100123.44
2022-12-29T04:28:27.623Z,100125.16
2022-12-29T04:33:49.603Z,100127.69
2022-12-29T04:39:11.575Z,100126.06
2022-12-29T04:44:33.407Z,100094.72
2022-12-29T04:49:56.660Z,100100.69
2022-12-29T04:55:18.612Z,100099.06
2022-12-29T05:00:40.433Z,100115.06
2022-12-29T05:06:02.721Z,100091.31
2022-12-29T05:11:24.533Z,100104.03
2022-12-29T05:16:46.354Z,100097.16
2022-12-29T05:22:08.206Z,100086.19
2022-12-29T05:27:30.069Z,100089.44
2022-12-29T05:32:52.069Z,100080.13
2022-12-29T05:38:13.925Z,100060.53
2022-12-29T05:43:36.334Z,100051.03
2022-12-29T05:48:58.328Z,100052.78
2022-12-29T05:54:20.240Z,100061.31
2022-12-29T05:59:42.061Z,100056.09
2022-12-29T06:05:04.147Z,100051.03
2022-12-29T06:10:26.073Z,100063.81
2022-12-29T06:15:50.416Z,100051.72
2022-12-29T06:21:12.254Z,100049.97
2022-12-29T06:26:34.122Z,100061.94
2022-12-29T06:31:56.043Z,100060.19
2022-12-29T06:37:17.880Z,100048.28
2022-12-29T06:42:39.775Z,100068.53
2022-12-29T06:48:01.603Z,100077.06
2022-12-29T06:53:23.454Z,100071.03
2022-12-29T06:58:45.335Z,100075.19
2022-12-29T07:04:07.187Z,100050.53
2022-12-29T07:09:29.019Z,100043.63
2022-12-29T07:14:50.892Z,100046.81
2022-12-29T07:20:12.720Z,100044.25
2022-12-29T07:25:34.599Z,100044.88
2022-12-29T07:30:56.433Z,100062.59
2022-12-29T07:36:18.397Z,100032.00
2022-12-29T07:41:40.207Z,100041.09
2022-12-29T07:47:02.416Z,100041.03
2022-12-29T07:52:24.340Z,100050.31
2022-12-29T07:57:46.297Z,100034.81
2022-12-29T08:03:08.156Z,100039.88
2022-12-29T08:08:29.967Z,100024.53
2022-12-29T08:13:52.791Z,100025.22
2022-12-29T08:19:15.083Z,100019.69
2022-12-29T08:24:36.945Z,100022.56
2022-12-29T08:29:58.776Z,100012.44
2022-12-29T08:35:20.650Z,100021.97
2022-12-29T08:40:42.682Z,100019.41
2022-12-29T08:46:04.668Z,100037.59
2022-12-29T08:51:26.599Z,100036.66
2022-12-29T08:56:48.410Z,100018.78
2022-12-29T09:02:12.710Z,100021.97
2022-12-29T09:07:34.902Z,100031.69
2022-12-29T09:12:56.918Z,100021.22
2022-12-29T09:18:21.398Z,100029.34
2022-12-29T09:23:43.689Z,100016.09
2022-12-29T09:29:05.580Z,100007.69
2022-12-29T09:34:27.443Z,100008.84
2022-12-29T09:39:54.305Z,100014.94
2022-12-29T09:45:57.091Z,100012.47
2022-12-29T09:51:24.606Z,99996.72
2022-12-29T09:56:48.339Z,99993.97
2022-12-29T10:02:31.080Z,99982.00
2022-12-29T10:08:17.777Z,99986.34
2022-12-29T10:13:51.782Z,99978.72
2022-12-29T10:19:32.945Z,99971.44
2022-12-29T10:24:56.424Z,99962.53
2022-12-29T10:30:19.262Z,99963.13
2022-12-29T10:35:42.465Z,99961.53
2022-12-29T10:41:14.943Z,99957.00
2022-12-29T10:46:38.430Z,99963.00
2022-12-29T10:52:03.989Z,99949.44
2022-12-29T10:57:33.389Z,99929.38
2022-12-29T11:03:16.493Z,99946.50
2022-12-29T11:08:46.095Z,99937.00
2022-12-29T11:14:19.087Z,99947.03
2022-12-29T11:19:41.378Z,99943.94
2022-12-29T11:25:13.197Z,99928.34
2022-12-29T11:30:35.059Z,99925.06
2022-12-29T11:36:13.145Z,99935.06
2022-12-29T11:41:34.984Z,99948.00
2022-12-29T11:46:56.839Z,99940.09
2022-12-29T11:52:23.536Z,99940.59
2022-12-29T11:57:45.951Z,99941.41
2022-12-29T12:03:24.274Z,99943.88
2022-12-29T12:08:58.865Z,99931.75
2022-12-29T12:14:26.729Z,99923.63
2022-12-29T12:20:23.739Z,99925.66
2022-12-29T12:25:58.596Z,99923.63
2022-12-29T12:31:44.337Z,99921.72
2022-12-29T12:37:19.881Z,99887.75
2022-12-29T12:43:05.009Z,99901.56
2022-12-29T12:48:59.994Z,99896.25
2022-12-29T12:54:59.684Z,99892.00
2022-12-29T13:00:22.471Z,99877.47
2022-12-29T13:05:56.393Z,99889.50
2022-12-29T13:11:43.113Z,99892.25
2022-12-29T13:17:15.474Z,99898.81
2022-12-29T13:23:05.605Z,99888.13
2022-12-29T13:28:42.217Z,99901.59
2022-12-29T13:34:15.596Z,99905.16
2022-12-29T13:39:46.901Z,99904.97
2022-12-29T13:45:17.457Z,99895.56
2022-12-29T13:50:41.270Z,99912.41
2022-12-29T13:56:13.730Z,99912.25
2022-12-29T14:01:40.596Z,99918.13
2022-12-29T14:07:15.934Z,99925.06
2022-12-29T14:12:44.164Z,99921.47
2022-12-29T14:18:27.585Z,99918.44
2022-12-29T14:23:51.514Z,99912.94
2022-12-29T14:29:17.892Z,99901.88
2022-12-29T14:34:40.156Z,99896.00
2022-12-29T14:45:31.151Z,99885.16
2022-12-29T14:50:53.097Z,99906.19
2022-12-29T14:56:40.806Z,99910.88
2022-12-29T15:02:18.579Z,99915.06
2022-12-29T15:07:41.666Z,99913.22
2022-12-29T15:13:06.528Z,99907.09
2022-12-29T15:18:33.941Z,99916.09
2022-12-29T15:23:55.996Z,99923.25
2022-12-29T15:29:41.361Z,99915.38
2022-12-29T15:35:32.660Z,99911.00
2022-12-29T15:40:57.713Z,99917.09
2022-12-29T15:46:19.971Z,99909.53
2022-12-29T15:51:42.090Z,99904.44
2022-12-29T15:57:04.920Z,99914.91
2022-12-29T16:02:27.737Z,99913.53
2022-12-29T16:07:56.127Z,99919.69
2022-12-29T16:13:36.869Z,99912.06
2022-12-29T16:19:21.468Z,99911.44
2022-12-29T16:24:43.436Z,99919.19
2022-12-29T16:30:17.147Z,99914.91
2022-12-29T16:35:47.288Z,99909.72
2022-12-29T16:41:09.181Z,99913.59
2022-12-29T16:46:31.689Z,99934.06
2022-12-29T16:51:55.441Z,99930.78
2022-12-29T16:57:32.512Z,99921.38
2022-12-29T17:02:59.582Z,99934.75
2022-12-29T17:08:22.528Z,99938.16
2022-12-29T17:13:44.457Z,99939.28
2022-12-29T17:19:08.573Z,99934.75
2022-12-29T17:24:30.476Z,99932.03
2022-12-29T17:29:55.789Z,99934.38
2022-12-29T17:35:19.889Z,99925.66
2022-12-29T17:40:42.114Z,99928.28
2022-12-29T17:46:06.931Z,99929.84
2022-12-29T17:51:28.895Z,99925.34
2022-12-29T17:56:51.312Z,99912.91
2022-12-29T18:02:31.915Z,99925.22
2022-12-29T18:07:55.870Z,99924.44
2022-12-29T18:13:30.291Z,99933.94
2022-12-29T18:18:57.845Z,99935.88
2022-12-29T18:24:19.742Z,99941.41
2022-12-29T18:29:42.162Z,99945.34
2022-12-29T18:35:04.323Z,99943.97
2022-12-29T18:40:26.173Z,99949.13
2022-12-29T18:45:48.348Z,99942.53
2022-12-29T18:51:24.430Z,99947.91
2022-12-29T18:56:46.242Z,99948.84
2022-12-29T19:02:15.733Z,99939.28
2022-12-29T19:07:37.689Z,99948.41
2022-12-29T19:12:59.676Z,99942.72
2022-12-29T19:24:05.682Z,99930.50
2022-12-29T19:29:27.530Z,99944.78
2022-12-29T19:34:49.450Z,99943.38
2022-12-29T19:40:14.626Z,99940.28
2022-12-29T19:45:39.089Z,99943.88
2022-12-29T19:51:09.955Z,99936.31
2022-12-29T19:56:31.788Z,99946.47
2022-12-29T20:01:53.755Z,99946.31
2022-12-29T20:07:17.790Z,99954.69
2022-12-29T20:12:39.846Z,99936.91
2022-12-29T20:18:13.242Z,99948.50
2022-12-29T20:23:38.401Z,99949.03
2022-12-29T20:29:00.264Z,99939.00
2022-12-29T20:34:22.126Z,99939.75
2022-12-29T20:39:44.113Z,99946.50
2022-12-29T20:45:06.310Z,99949.41
2022-12-29T20:50:28.136Z,99952.81
2022-12-29T20:55:50.075Z,99946.06
2022-12-29T21:01:15.608Z,99939.28
2022-12-29T21:06:37.772Z,99955.56
2022-12-29T21:11:59.583Z,99949.72
2022-12-29T21:17:21.394Z,99953.53
2022-12-29T21:22:43.244Z,99956.28
2022-12-29T21:28:09.925Z,99946.75
2022-12-29T21:33:31.856Z,99965.41
2022-12-29T21:38:54.330Z,99961.72
2022-12-29T21:44:16.178Z,99952.25
2022-12-29T21:49:38.092Z,99960.59
2022-12-29T21:54:59.914Z,99949.44
2022-12-29T22:00:21.904Z,99951.56
2022-12-29T22:05:44.116Z,99958.41
2022-12-29T22:11:08.453Z,99958.31
2022-12-29T22:16:30.374Z,99962.53
2022-12-29T22:21:52.327Z,99959.06
2022-12-29T22:27:14.191Z,99961.44
2022-12-29T22:32:36.138Z,99981.50
2022-12-29T22:37:57.995Z,99981.50
2022-12-29T22:43:19.915Z,99976.63
2022-12-29T22:48:41.853Z,99984.13
2022-12-29T22:54:03.793Z,99989.03
2022-12-29T22:59:25.676Z,99995.13
2022-12-29T23:05:03.041Z,99981.06
2022-12-29T23:10:26.179Z,100001.53
2022-12-29T23:15:48.374Z,99999.84
2022-12-29T23:21:11.027Z,100001.72
2022-12-29T23:26:42.590Z,100015.34
2022-12-29T23:32:04.471Z,100011.13
2022-12-29T23:37:26.522Z,100016.25
2022-12-29T23:42:48.379Z,100018.06
2022-12-29T23:48:10.373Z,100016.56
2022-12-29T23:53:33.858Z,100005.78
2022-12-29T23:58:55.808Z,100011.91
